Time;durP1;ratioP1;P1;durP2;ratioP2;P2;SDS_P1;SDS_P2;PMS_P1;PMS_P2;Temp;Humidity;BMP_temperature;BMP_pressure;BME280_temperature;BME280_humidity;BME280_pressure;Samples;Min_cycle;Max_cycle;Signal;HPM_P1;HPM_P2
2024/04/21 00:00:31;;;;;;;;;;;;;;;14.27;55.58;99058.38;5452544;26;20239;-25
2024/04/21 00:02:57;;;;;;;;;;;;;;;14.57;56.10;99067.16;5452319;26;19944;-25
2024/04/21 00:05:22;;;;;;;;;;;;;;;14.59;56.17;99057.81;5452210;26;19961;-26
2024/04/21 00:07:47;;;;;;;;;;;;;;;14.74;55.34;99070.59;5451850;26;19924;-26
2024/04/21 00:10:12;;;;;;;;;;;;;;;14.70;55.29;99064.13;5450898;26;19932;-26
2024/04/21 00:12:38;;;;;;;;;;;;;;;14.77;54.79;99066.59;5450966;26;19936;-26
2024/04/21 00:15:03;;;;;;;;;;;;;;;14.98;54.97;99065.00;5451230;26;20320;-27
2024/04/21 00:17:28;;;;;;;;;;;;;;;15.28;53.95;99058.41;5451117;26;20368;-27
2024/04/21 00:19:53;;;;;;;;;;;;;;;14.93;53.93;99062.28;5450835;26;19993;-26
2024/04/21 00:22:19;;;;;;;;;;;;;;;15.18;53.42;99056.41;5450325;26;20336;-27
2024/04/21 00:24:44;;;;;;;;;;;;;;;14.98;52.91;99060.47;5450701;26;20555;-26
2024/04/21 00:27:09;;;;;;;;;;;;;;;15.17;52.57;99057.47;5451119;26;19924;-27
2024/04/21 00:29:34;;;;;;;;;;;;;;;15.07;52.69;99054.69;5451106;26;19933;-26
2024/04/21 00:32:00;;;;;;;;;;;;;;;15.30;52.43;99058.97;5451159;26;20375;-26
2024/04/21 00:34:25;;;;;;;;;;;;;;;15.07;53.08;99060.84;5451060;26;19931;-25
2024/04/21 00:36:50;;;;;;;;;;;;;;;14.90;52.76;99071.59;5450924;26;20357;-26
2024/04/21 00:39:15;;;;;;;;;;;;;;;14.90;53.19;99076.16;5450631;26;20356;-26
2024/04/21 00:41:41;;;;;;;;;;;;;;;15.02;53.08;99066.13;5450816;26;19924;-25
2024/04/21 00:44:06;;;;;;;;;;;;;;;15.05;53.02;99081.72;5451225;26;19932;-26
2024/04/21 00:46:31;;;;;;;;;;;;;;;15.10;52.55;99070.25;5450671;26;19924;-26
2024/04/21 00:48:56;;;;;;;;;;;;;;;15.24;52.12;99064.25;5450553;26;19924;-26
2024/04/21 00:51:22;;;;;;;;;;;;;;;15.43;51.15;99069.28;5450721;26;19931;-26
2024/04/21 00:53:49;;;;;;;;;;;;;;;15.55;50.52;99071.81;5450749;26;20380;-26
2024/04/21 00:56:19;;;;;;;;;;;;;;;15.44;50.32;99069.06;5450667;26;19924;-26
2024/04/21 00:58:44;;;;;;;;;;;;;;;15.41;50.34;99066.06;5450757;26;20046;-27
2024/04/21 01:01:09;;;;;;;;;;;;;;;15.42;51.47;99062.31;5451505;26;20353;-26
2024/04/21 01:03:35;;;;;;;;;;;;;;;15.42;52.21;99060.44;5451848;26;19948;-26
2024/04/21 01:06:00;;;;;;;;;;;;;;;15.35;53.01;99059.84;5451807;26;20366;-26
2024/04/21 01:08:26;;;;;;;;;;;;;;;15.41;53.59;99061.50;5451660;26;19953;-27
2024/04/21 01:10:51;;;;;;;;;;;;;;;15.48;53.18;99052.44;5451556;26;20047;-27
2024/04/21 01:13:16;;;;;;;;;;;;;;;15.47;53.00;99048.97;5451581;26;19924;-27
2024/04/21 01:15:41;;;;;;;;;;;;;;;15.47;52.91;99061.56;5451383;26;19931;-26
2024/04/21 01:18:07;;;;;;;;;;;;;;;15.44;52.49;99066.38;5452027;26;20330;-27
2024/04/21 01:20:33;;;;;;;;;;;;;;;15.19;52.71;99060.69;5451543;26;20051;-27
2024/04/21 01:22:58;;;;;;;;;;;;;;;15.04;52.66;99064.00;5451348;26;19924;-26
2024/04/21 01:25:25;;;;;;;;;;;;;;;15.23;52.46;99067.19;5451545;26;20261;-26
2024/04/21 01:27:50;;;;;;;;;;;;;;;15.30;51.94;99067.00;5451962;26;19924;-27
2024/04/21 01:30:15;;;;;;;;;;;;;;;14.99;53.12;99063.97;5451536;26;20260;-26
2024/04/21 01:32:40;;;;;;;;;;;;;;;15.09;53.95;99063.28;5451004;26;20265;-26
2024/04/21 01:35:06;;;;;;;;;;;;;;;15.33;53.24;99056.59;5450234;26;19985;-26
2024/04/21 01:37:31;;;;;;;;;;;;;;;15.27;52.64;99054.94;5450899;26;19931;-27
2024/04/21 01:39:56;;;;;;;;;;;;;;;14.98;53.76;99040.91;5450260;26;19932;-27
2024/04/21 01:42:22;;;;;;;;;;;;;;;14.95;53.99;99055.59;5451028;26;19993;-27
2024/04/21 01:44:47;;;;;;;;;;;;;;;15.04;53.87;99056.81;5451378;26;20367;-26
2024/04/21 01:47:12;;;;;;;;;;;;;;;15.28;53.88;99061.09;5451117;26;19931;-27
2024/04/21 01:49:37;;;;;;;;;;;;;;;15.55;53.61;99072.63;5450866;26;19936;-26
2024/04/21 01:52:03;;;;;;;;;;;;;;;15.57;53.53;99073.22;5451410;26;19925;-27
2024/04/21 01:54:28;;;;;;;;;;;;;;;15.60;54.54;99058.47;5450678;26;19931;-27
2024/04/21 01:56:53;;;;;;;;;;;;;;;15.53;53.91;99065.91;5450560;26;20220;-27
2024/04/21 01:59:18;;;;;;;;;;;;;;;15.52;54.42;99070.47;5451353;26;19997;-27
2024/04/21 02:01:43;;;;;;;;;;;;;;;15.60;53.86;99067.31;5451063;26;19992;-26
2024/04/21 02:04:09;;;;;;;;;;;;;;;15.61;53.11;99068.97;5451099;26;19925;-27
2024/04/21 02:06:35;;;;;;;;;;;;;;;15.59;53.20;99065.72;5451040;26;19931;-27
2024/04/21 02:09:00;;;;;;;;;;;;;;;15.49;52.88;99067.47;5450869;26;20421;-27
2024/04/21 02:11:26;;;;;;;;;;;;;;;15.60;51.96;99055.81;5450600;26;19924;-27
2024/04/21 02:13:51;;;;;;;;;;;;;;;15.48;52.38;99057.81;5450424;26;19925;-27
2024/04/21 02:16:16;;;;;;;;;;;;;;;15.49;51.89;99049.50;5450831;26;19924;-26
2024/04/21 02:18:41;;;;;;;;;;;;;;;15.55;51.90;99045.00;5450109;26;20225;-26
2024/04/21 02:21:07;;;;;;;;;;;;;;;15.55;52.57;99040.44;5450658;26;20246;-28
2024/04/21 02:23:32;;;;;;;;;;;;;;;15.55;53.42;99048.50;5451176;26;19924;-27
2024/04/21 02:26:01;;;;;;;;;;;;;;;15.19;54.77;99050.81;5450061;26;19931;-27
2024/04/21 02:28:26;;;;;;;;;;;;;;;15.20;55.49;99049.75;5450777;26;19924;-27
2024/04/21 02:30:52;;;;;;;;;;;;;;;15.25;55.75;99049.00;5450596;26;19925;-27
2024/04/21 02:33:17;;;;;;;;;;;;;;;15.08;56.21;99046.41;5450530;26;20236;-27
2024/04/21 02:35:42;;;;;;;;;;;;;;;15.01;56.35;99035.06;5450250;26;20353;-27
2024/04/21 02:38:09;;;;;;;;;;;;;;;15.06;56.13;99040.47;5450441;26;20255;-28
2024/04/21 02:40:35;;;;;;;;;;;;;;;14.99;56.60;99039.84;5450814;26;19925;-26
2024/04/21 02:43:00;;;;;;;;;;;;;;;14.99;57.00;99051.38;5450472;26;19959;-26
2024/04/21 02:45:25;;;;;;;;;;;;;;;15.02;56.99;99060.78;5450537;26;19924;-26
2024/04/21 02:47:50;;;;;;;;;;;;;;;14.93;57.08;99062.28;5454174;26;19924;-26
2024/04/21 02:50:16;;;;;;;;;;;;;;;14.70;57.51;99074.00;5453883;26;19947;-26
2024/04/21 02:52:41;;;;;;;;;;;;;;;14.84;56.96;99062.69;5453504;26;20365;-26
2024/04/21 02:55:06;;;;;;;;;;;;;;;13.99;59.06;99072.66;5453695;26;20324;-26
2024/04/21 02:57:32;;;;;;;;;;;;;;;13.80;60.75;99063.22;5453706;26;20256;-26
2024/04/21 02:59:57;;;;;;;;;;;;;;;13.38;61.90;99072.34;5453755;26;19993;-26
2024/04/21 03:02:22;;;;;;;;;;;;;;;13.48;62.23;99071.75;5453346;26;20349;-26
2024/04/21 03:04:47;;;;;;;;;;;;;;;13.33;62.74;99068.75;5453410;26;20284;-26
2024/04/21 03:07:13;;;;;;;;;;;;;;;13.49;62.09;99062.66;5453819;26;19932;-26
2024/04/21 03:09:41;;;;;;;;;;;;;;;13.27;61.82;99068.66;5453788;26;19993;-26
2024/04/21 03:12:07;;;;;;;;;;;;;;;13.61;61.27;99070.63;5453975;26;20398;-26
2024/04/21 03:14:32;;;;;;;;;;;;;;;13.65;60.19;99069.09;5513168;26;19957;-26
2024/04/21 03:16:58;;;;;;;;;;;;;;;13.26;60.91;99068.88;5453661;26;19940;-26
2024/04/21 03:19:23;;;;;;;;;;;;;;;13.68;60.23;99068.63;5453442;26;20065;-27
2024/04/21 03:21:48;;;;;;;;;;;;;;;13.86;59.74;99063.06;5452642;26;19932;-26
2024/04/21 03:24:13;;;;;;;;;;;;;;;14.07;58.90;99069.56;5453536;26;19924;-27
2024/04/21 03:26:39;;;;;;;;;;;;;;;14.09;59.14;99072.00;5453171;26;19924;-26
2024/04/21 03:29:04;;;;;;;;;;;;;;;14.22;58.74;99065.50;5512990;26;19936;-27
2024/04/21 03:31:29;;;;;;;;;;;;;;;14.24;58.63;99072.25;5453559;26;20037;-27
2024/04/21 03:33:54;;;;;;;;;;;;;;;14.45;58.24;99069.91;5452989;26;20634;-26
2024/04/21 03:36:20;;;;;;;;;;;;;;;14.17;58.56;99070.81;5453181;26;20579;-27
2024/04/21 03:38:45;;;;;;;;;;;;;;;13.36;60.60;99065.63;5452830;26;19997;-27
2024/04/21 03:41:11;;;;;;;;;;;;;;;13.38;60.62;99063.53;5452857;26;19924;-26
2024/04/21 03:43:36;;;;;;;;;;;;;;;13.82;59.46;99061.09;5453627;26;19931;-26
2024/04/21 03:46:01;;;;;;;;;;;;;;;13.97;59.01;99064.03;5452924;26;20309;-27
2024/04/21 03:48:27;;;;;;;;;;;;;;;13.54;59.19;99067.31;5453021;26;19925;-26
2024/04/21 03:50:52;;;;;;;;;;;;;;;13.47;60.17;99072.78;5453200;26;19924;-27
2024/04/21 03:53:18;;;;;;;;;;;;;;;13.62;59.21;99067.72;5452974;26;19947;-27
2024/04/21 03:55:43;;;;;;;;;;;;;;;12.95;61.55;99065.59;5452764;26;19956;-26
2024/04/21 03:58:08;;;;;;;;;;;;;;;13.23;61.21;99066.69;5451720;26;19924;-26
2024/04/21 04:00:34;;;;;;;;;;;;;;;13.52;59.71;99074.72;5452936;26;19928;-26
2024/04/21 04:02:59;;;;;;;;;;;;;;;13.29;59.82;99066.56;5453091;26;20382;-27
2024/04/21 04:05:25;;;;;;;;;;;;;;;13.36;59.77;99065.63;5453735;26;19935;-28
2024/04/21 04:07:50;;;;;;;;;;;;;;;13.28;60.00;99061.44;5453588;26;19924;-26
2024/04/21 04:10:15;;;;;;;;;;;;;;;12.90;61.05;99071.63;5454155;26;19929;-27
2024/04/21 04:12:42;;;;;;;;;;;;;;;12.68;62.39;99076.78;5453273;26;19993;-27
2024/04/21 04:15:08;;;;;;;;;;;;;;;12.37;62.92;99083.25;5453605;26;19932;-26
2024/04/21 04:17:34;;;;;;;;;;;;;;;11.82;64.85;99084.31;5453598;26;19925;-27
2024/04/21 04:19:59;;;;;;;;;;;;;;;11.75;65.51;99086.25;5512909;26;19931;-27
2024/04/21 04:22:24;;;;;;;;;;;;;;;11.70;66.07;99091.44;5453242;26;19935;-27
2024/04/21 04:24:49;;;;;;;;;;;;;;;11.80;68.57;99099.69;5453769;26;19936;-26
2024/04/21 04:27:14;;;;;;;;;;;;;;;12.03;65.50;99099.00;5453891;26;19931;-26
2024/04/21 04:29:40;;;;;;;;;;;;;;;11.99;65.52;99094.34;5453237;26;19931;-27
2024/04/21 04:32:05;;;;;;;;;;;;;;;11.53;67.42;99092.06;5453336;26;19924;-27
2024/04/21 04:34:30;;;;;;;;;;;;;;;12.24;65.10;99089.66;5453578;26;19935;-25
2024/04/21 04:36:55;;;;;;;;;;;;;;;12.33;64.94;99095.44;5453725;26;20244;-27
2024/04/21 04:39:21;;;;;;;;;;;;;;;12.24;64.87;99105.66;5453213;26;19932;-27
2024/04/21 04:41:46;;;;;;;;;;;;;;;11.62;66.90;99097.91;5453238;26;19932;-26
2024/04/21 04:44:12;;;;;;;;;;;;;;;12.48;64.92;99103.00;5453097;26;19924;-27
2024/04/21 04:46:37;;;;;;;;;;;;;;;12.75;63.48;99095.34;5453028;26;19930;-26
2024/04/21 04:49:02;;;;;;;;;;;;;;;12.68;63.20;99098.13;5453004;26;19924;-27
2024/04/21 04:51:27;;;;;;;;;;;;;;;12.90;62.64;99106.34;5453172;26;19925;-26
2024/04/21 04:53:52;;;;;;;;;;;;;;;12.98;62.64;99099.81;5453062;26;19993;-27
2024/04/21 04:56:18;;;;;;;;;;;;;;;13.41;60.78;99093.25;5453182;26;20360;-27
2024/04/21 04:58:43;;;;;;;;;;;;;;;13.77;59.49;99093.94;5453136;26;20402;-28
2024/04/21 05:01:08;;;;;;;;;;;;;;;13.58;59.89;99097.84;5452847;26;20272;-26
2024/04/21 05:03:33;;;;;;;;;;;;;;;13.79;60.02;99105.19;5453070;26;19956;-27
2024/04/21 05:05:58;;;;;;;;;;;;;;;14.46;58.16;99101.75;5453009;26;19932;-28
2024/04/21 05:08:24;;;;;;;;;;;;;;;14.99;61.86;99107.63;5451964;26;19993;-28
2024/04/21 05:10:49;;;;;;;;;;;;;;;15.63;55.71;99108.91;5452076;26;19940;-27
2024/04/21 05:13:14;;;;;;;;;;;;;;;16.29;53.44;99116.03;5452614;26;19992;-26
2024/04/21 05:15:39;;;;;;;;;;;;;;;16.80;52.12;99111.00;5450835;26;19936;-27
2024/04/21 05:18:05;;;;;;;;;;;;;;;17.01;50.68;99117.34;5450301;26;20398;-26
2024/04/21 05:20:30;;;;;;;;;;;;;;;16.79;50.06;99115.59;5449911;26;20360;-27
2024/04/21 05:22:55;;;;;;;;;;;;;;;15.64;52.16;99108.66;5450196;26;20548;-26
2024/04/21 05:25:20;;;;;;;;;;;;;;;15.64;52.90;99111.34;5450057;26;19925;-27
2024/04/21 05:27:45;;;;;;;;;;;;;;;15.85;53.17;99108.91;5450045;26;19924;-27
2024/04/21 05:30:11;;;;;;;;;;;;;;;16.58;50.97;99120.00;5449582;26;19925;-27
2024/04/21 05:32:36;;;;;;;;;;;;;;;16.71;49.69;99113.34;5449782;26;19969;-27
2024/04/21 05:35:01;;;;;;;;;;;;;;;16.95;49.35;99113.81;5449686;26;19966;-27
2024/04/21 05:37:26;;;;;;;;;;;;;;;17.19;48.76;99113.38;5450456;26;20540;-27
2024/04/21 05:39:52;;;;;;;;;;;;;;;16.66;49.65;99104.47;5451003;26;19931;-27
2024/04/21 05:42:17;;;;;;;;;;;;;;;16.70;50.27;99119.81;5452377;26;19925;-27
2024/04/21 05:44:42;;;;;;;;;;;;;;;17.45;49.58;99118.88;5451889;26;19924;-27
2024/04/21 05:47:07;;;;;;;;;;;;;;;18.08;47.53;99111.50;5452319;26;20034;-28
2024/04/21 05:49:32;;;;;;;;;;;;;;;18.50;46.24;99113.09;5452076;26;19957;-28
2024/04/21 05:51:58;;;;;;;;;;;;;;;18.40;46.40;99109.63;5452023;26;19935;-28
2024/04/21 05:54:23;;;;;;;;;;;;;;;19.54;44.77;99117.16;5452023;26;19924;-27
2024/04/21 05:56:48;;;;;;;;;;;;;;;19.21;44.04;99110.53;5451755;26;19925;-28
2024/04/21 05:59:13;;;;;;;;;;;;;;;19.22;44.65;99101.38;5449676;26;20502;-27
2024/04/21 06:01:39;;;;;;;;;;;;;;;19.96;43.36;99129.34;5452028;26;20256;-27
2024/04/21 06:04:04;;;;;;;;;;;;;;;20.53;41.23;99126.22;5451841;26;19925;-28
2024/04/21 06:06:29;;;;;;;;;;;;;;;20.61;41.49;99131.84;5451449;26;19931;-28
2024/04/21 06:08:54;;;;;;;;;;;;;;;21.31;39.27;99132.47;5451815;26;19957;-28
2024/04/21 06:11:19;;;;;;;;;;;;;;;21.42;39.94;99131.25;5452184;26;20216;-28
2024/04/21 06:13:45;;;;;;;;;;;;;;;21.76;38.29;99130.28;5451412;26;19925;-28
2024/04/21 06:16:10;;;;;;;;;;;;;;;21.98;38.30;99125.09;5451996;26;19966;-27
2024/04/21 06:18:35;;;;;;;;;;;;;;;22.39;36.51;99121.78;5451899;26;19924;-27
2024/04/21 06:21:00;;;;;;;;;;;;;;;22.70;36.79;99115.81;5452581;26;19958;-27
2024/04/21 06:23:26;;;;;;;;;;;;;;;22.74;36.82;99103.25;5455525;26;19931;-27
2024/04/21 06:25:51;;;;;;;;;;;;;;;22.48;36.85;99116.44;5455369;26;19924;-28
2024/04/21 06:28:16;;;;;;;;;;;;;;;23.45;35.51;99115.75;5455363;26;19925;-27
2024/04/21 06:30:41;;;;;;;;;;;;;;;23.98;34.80;99109.69;5455269;26;20256;-30
2024/04/21 06:33:07;;;;;;;;;;;;;;;24.19;33.64;99110.00;5455436;26;19924;-27
2024/04/21 06:35:32;;;;;;;;;;;;;;;24.10;33.63;99099.06;5454979;26;19957;-26
2024/04/21 06:37:57;;;;;;;;;;;;;;;24.72;33.47;99108.44;5455079;26;19925;-27
2024/04/21 06:40:22;;;;;;;;;;;;;;;24.45;33.62;99114.81;5455176;26;20015;-27
2024/04/21 06:42:48;;;;;;;;;;;;;;;23.92;34.27;99127.22;5454920;26;19924;-28
2024/04/21 06:45:13;;;;;;;;;;;;;;;22.64;36.81;99130.56;5453506;26;19924;-26
2024/04/21 06:47:38;;;;;;;;;;;;;;;24.06;34.53;99124.47;5453323;26;19931;-28
2024/04/21 06:50:03;;;;;;;;;;;;;;;25.42;32.98;99142.19;5453499;26;19925;-27
2024/04/21 06:52:29;;;;;;;;;;;;;;;25.35;32.89;99139.13;5453273;26;19924;-27
2024/04/21 06:54:54;;;;;;;;;;;;;;;25.29;32.03;99135.75;5451700;26;19924;-28
2024/04/21 06:57:19;;;;;;;;;;;;;;;24.83;31.02;99139.69;5453072;26;20463;-27
2024/04/21 06:59:45;;;;;;;;;;;;;;;25.43;30.85;99130.16;5453582;26;20265;-29
2024/04/21 07:02:11;;;;;;;;;;;;;;;25.30;31.33;99133.81;5453567;26;19925;-27
2024/04/21 07:04:36;;;;;;;;;;;;;;;25.28;31.05;99131.41;5453276;26;20000;-27
2024/04/21 07:07:01;;;;;;;;;;;;;;;24.71;30.82;99128.59;5452939;26;19936;-28
2024/04/21 07:09:26;;;;;;;;;;;;;;;24.51;31.54;99130.72;5452933;26;19932;-26
2024/04/21 07:11:51;;;;;;;;;;;;;;;25.59;30.75;99130.53;5452780;26;19925;-26
2024/04/21 07:14:17;;;;;;;;;;;;;;;24.88;31.81;99125.94;5452379;26;20264;-27
2024/04/21 07:16:42;;;;;;;;;;;;;;;25.54;31.16;99134.19;5452828;26;19931;-27
2024/04/21 07:19:07;;;;;;;;;;;;;;;26.45;30.09;99131.66;5454047;26;19963;-29
2024/04/21 07:21:33;;;;;;;;;;;;;;;26.74;28.93;99132.88;5453037;26;19925;-27
2024/04/21 07:23:58;;;;;;;;;;;;;;;26.43;28.07;99125.72;5453536;26;19931;-27
2024/04/21 07:26:23;;;;;;;;;;;;;;;26.88;27.91;99127.22;5453281;26;19933;-29
2024/04/21 07:28:48;;;;;;;;;;;;;;;26.04;28.65;99141.16;5453120;26;20271;-26
2024/04/21 07:31:14;;;;;;;;;;;;;;;26.49;28.07;99134.53;5452417;26;19993;-28
2024/04/21 07:33:39;;;;;;;;;;;;;;;26.31;27.60;99141.94;5453106;26;19924;-28
2024/04/21 07:36:04;;;;;;;;;;;;;;;27.04;27.37;99125.53;5452992;26;19936;-26
2024/04/21 07:38:29;;;;;;;;;;;;;;;24.54;29.21;99138.28;5452815;26;19932;-27
2024/04/21 07:40:55;;;;;;;;;;;;;;;23.79;30.09;99137.03;5452336;26;19956;-26
2024/04/21 07:43:21;;;;;;;;;;;;;;;24.11;30.16;99127.88;5433941;26;19924;-27
2024/04/21 07:45:50;;;;;;;;;;;;;;;22.63;31.08;99132.44;5452812;26;20352;-26
2024/04/21 07:48:15;;;;;;;;;;;;;;;21.99;31.48;99125.88;5452969;26;19931;-28
2024/04/21 07:50:43;;;;;;;;;;;;;;;22.31;32.99;99127.03;5452916;26;19925;-27
2024/04/21 07:53:08;;;;;;;;;;;;;;;21.69;32.51;99138.78;5452781;26;19924;-28
2024/04/21 07:55:33;;;;;;;;;;;;;;;20.34;35.77;99129.63;5452733;26;19962;-26
2024/04/21 07:58:01;;;;;;;;;;;;;;;22.01;33.87;99124.50;5452128;26;19931;-27
2024/04/21 08:00:26;;;;;;;;;;;;;;;23.39;30.97;99131.34;5452877;26;19932;-28
2024/04/21 08:02:52;;;;;;;;;;;;;;;23.88;30.48;99132.47;5452934;26;19939;-27
2024/04/21 08:05:17;;;;;;;;;;;;;;;22.02;32.25;99128.00;5452617;26;19924;-27
2024/04/21 08:07:42;;;;;;;;;;;;;;;22.24;32.19;99130.91;5453089;26;20345;-28
2024/04/21 08:10:07;;;;;;;;;;;;;;;22.40;32.55;99123.38;5452981;26;19932;-26
2024/04/21 08:12:33;;;;;;;;;;;;;;;22.41;31.27;99132.31;5452608;26;20002;-26
2024/04/21 08:14:58;;;;;;;;;;;;;;;23.00;29.64;99133.44;5452302;26;19932;-27
2024/04/21 08:17:23;;;;;;;;;;;;;;;22.75;29.84;99137.41;5451155;26;19924;-28
2024/04/21 08:19:48;;;;;;;;;;;;;;;23.64;29.15;99132.69;5452241;26;19970;-26
2024/04/21 08:22:13;;;;;;;;;;;;;;;22.24;31.66;99128.22;5452339;26;20663;-26
2024/04/21 08:24:39;;;;;;;;;;;;;;;21.69;31.79;99124.44;5452150;26;20409;-27
2024/04/21 08:27:04;;;;;;;;;;;;;;;21.95;32.35;99122.16;5452395;26;20348;-27
2024/04/21 08:29:30;;;;;;;;;;;;;;;22.28;32.18;99119.53;5452348;26;20394;-26
2024/04/21 08:31:55;;;;;;;;;;;;;;;23.10;31.55;99124.31;5452623;26;19940;-28
2024/04/21 08:34:22;;;;;;;;;;;;;;;22.35;32.42;99114.50;5453365;26;20209;-26
2024/04/21 08:36:48;;;;;;;;;;;;;;;23.03;31.23;99103.00;5452525;26;19924;-29
2024/04/21 08:39:13;;;;;;;;;;;;;;;22.46;32.18;99110.53;5451859;26;19993;-30
2024/04/21 08:41:42;;;;;;;;;;;;;;;23.11;31.08;99106.13;5451956;26;20264;-28
2024/04/21 08:44:14;;;;;;;;;;;;;;;23.54;30.53;99111.19;5450813;26;19931;-28
2024/04/21 08:46:39;;;;;;;;;;;;;;;23.52;30.78;99105.28;5452077;26;19924;-27
2024/04/21 08:49:05;;;;;;;;;;;;;;;22.92;30.65;99108.88;5452177;26;19935;-28
2024/04/21 08:51:33;;;;;;;;;;;;;;;23.11;31.13;99100.69;5453293;26;20553;-25
2024/04/21 08:53:58;;;;;;;;;;;;;;;22.95;31.28;99094.75;5452996;26;19993;-27
2024/04/21 08:56:26;;;;;;;;;;;;;;;22.82;31.46;99097.13;5452918;26;20283;-29
2024/04/21 08:58:51;;;;;;;;;;;;;;;22.84;31.76;99088.69;5452875;26;19936;-27
2024/04/21 09:01:19;;;;;;;;;;;;;;;22.24;33.13;99087.56;5450616;26;20357;-26
2024/04/21 09:03:47;;;;;;;;;;;;;;;21.11;34.43;99101.03;5451299;26;20306;-26
2024/04/21 09:06:15;;;;;;;;;;;;;;;20.37;35.33;99066.09;5453043;26;19935;-27
2024/04/21 09:08:40;;;;;;;;;;;;;;;21.24;34.68;99089.53;5453732;26;19970;-28
2024/04/21 09:11:06;;;;;;;;;;;;;;;21.03;35.24;99084.34;5424692;26;19924;-27
2024/04/21 09:13:31;;;;;;;;;;;;;;;20.41;37.19;99076.06;5416984;26;20365;-29
2024/04/21 09:15:56;;;;;;;;;;;;;;;20.11;37.76;99098.75;5417149;26;19925;-26
2024/04/21 09:18:21;;;;;;;;;;;;;;;19.78;38.94;99081.41;5417215;26;20020;-26
2024/04/21 09:20:47;;;;;;;;;;;;;;;20.49;38.12;99082.75;5417012;26;20028;-28
2024/04/21 09:23:12;;;;;;;;;;;;;;;19.73;39.04;99074.16;5415447;26;19924;-27
2024/04/21 09:25:38;;;;;;;;;;;;;;;19.83;38.74;99082.19;5416874;26;19925;-29
2024/04/21 09:28:03;;;;;;;;;;;;;;;20.66;38.00;99074.25;5416908;26;19936;-30
2024/04/21 09:30:29;;;;;;;;;;;;;;;20.28;37.29;99085.63;5416848;26;20364;-27
2024/04/21 09:32:54;;;;;;;;;;;;;;;20.33;37.98;99073.16;5416506;26;19925;-29
2024/04/21 09:35:20;;;;;;;;;;;;;;;20.34;38.06;99074.78;5415561;26;19925;-30
2024/04/21 09:37:46;;;;;;;;;;;;;;;20.77;36.62;99083.03;5415980;26;19924;-26
2024/04/21 09:40:12;;;;;;;;;;;;;;;19.95;38.52;99076.44;5416101;26;19925;-29
2024/04/21 09:42:38;;;;;;;;;;;;;;;20.35;37.82;99077.19;5417160;26;19925;-27
2024/04/21 09:45:04;;;;;;;;;;;;;;;21.05;36.21;99068.63;5417481;26;20002;-27
2024/04/21 09:47:31;;;;;;;;;;;;;;;20.73;37.84;99066.56;5416597;26;19953;-27
2024/04/21 09:49:56;;;;;;;;;;;;;;;20.47;36.93;99060.63;5443616;26;19993;-28
2024/04/21 09:52:23;;;;;;;;;;;;;;;20.09;38.59;99063.13;5452492;26;20345;-26
2024/04/21 09:54:48;;;;;;;;;;;;;;;20.54;37.65;99069.16;5452526;26;19925;-26
2024/04/21 09:57:17;;;;;;;;;;;;;;;20.88;37.08;99065.59;5455279;26;20285;-27
2024/04/21 09:59:43;;;;;;;;;;;;;;;21.93;36.22;99052.03;5455421;26;20376;-27
2024/04/21 10:02:24;;;;;;;;;;;;;;;21.82;36.11;99054.09;5455561;26;19932;-27
2024/04/21 10:04:52;;;;;;;;;;;;;;;21.31;35.89;99064.84;5456022;26;19953;-26
2024/04/21 10:07:20;;;;;;;;;;;;;;;21.79;35.21;99053.88;5455702;26;20314;-31
2024/04/21 10:09:46;;;;;;;;;;;;;;;21.42;35.82;99061.69;5455737;26;20060;-29
2024/04/21 10:12:11;;;;;;;;;;;;;;;22.12;34.58;99054.69;5456051;26;19932;-27
2024/04/21 10:14:37;;;;;;;;;;;;;;;21.75;35.14;99059.06;5454886;26;19975;-27
2024/04/21 10:17:02;;;;;;;;;;;;;;;20.80;36.59;99060.84;5455160;26;19925;-29
2024/04/21 10:19:27;;;;;;;;;;;;;;;21.62;35.63;99044.38;5455081;26;19931;-27
2024/04/21 10:21:53;;;;;;;;;;;;;;;22.11;34.58;99047.69;5454874;26;19925;-26
2024/04/21 10:24:18;;;;;;;;;;;;;;;21.20;36.72;99051.41;5455408;26;19925;-26
2024/04/21 10:26:44;;;;;;;;;;;;;;;21.10;36.88;99051.56;5454974;26;19925;-28
2024/04/21 10:29:10;;;;;;;;;;;;;;;20.72;37.43;99037.94;5454865;26;19924;-27
2024/04/21 10:31:35;;;;;;;;;;;;;;;20.39;38.58;99023.38;5453835;26;20353;-28
2024/04/21 10:34:04;;;;;;;;;;;;;;;19.95;39.20;99022.44;5453323;26;19924;-28
2024/04/21 10:36:37;;;;;;;;;;;;;;;20.24;39.57;99021.66;5454707;26;20272;-28
2024/04/21 10:39:02;;;;;;;;;;;;;;;20.89;38.16;99005.84;5455173;26;19931;-27
2024/04/21 10:41:30;;;;;;;;;;;;;;;20.25;39.53;99020.56;5455427;26;20078;-29
2024/04/21 10:43:55;;;;;;;;;;;;;;;20.18;39.37;99015.50;5454768;26;19956;-27
2024/04/21 10:46:20;;;;;;;;;;;;;;;19.64;39.66;99009.13;5455037;26;19993;-26
2024/04/21 10:48:46;;;;;;;;;;;;;;;20.00;39.65;99006.19;5454265;26;19928;-29
2024/04/21 10:51:12;;;;;;;;;;;;;;;19.90;39.59;99015.19;5454560;26;19925;-27
2024/04/21 10:53:37;;;;;;;;;;;;;;;20.70;39.17;99003.09;5454989;26;20256;-27
2024/04/21 10:56:03;;;;;;;;;;;;;;;21.01;38.28;99004.59;5455157;26;20345;-26
2024/04/21 10:58:29;;;;;;;;;;;;;;;21.39;37.61;99005.44;5454588;26;20260;-26
2024/04/21 11:00:54;;;;;;;;;;;;;;;21.74;37.27;98991.69;5454669;26;20010;-29
2024/04/21 11:03:20;;;;;;;;;;;;;;;21.19;37.13;98989.47;5455158;26;20394;-27
2024/04/21 11:05:45;;;;;;;;;;;;;;;19.95;38.97;99003.53;5455062;26;19932;-27
2024/04/21 11:08:10;;;;;;;;;;;;;;;19.53;40.37;98996.81;5453932;26;20438;-28
2024/04/21 11:10:35;;;;;;;;;;;;;;;19.80;39.60;98987.47;5454365;26;19924;-27
2024/04/21 11:13:01;;;;;;;;;;;;;;;20.16;39.73;98987.94;5454912;26;19931;-28
2024/04/21 11:15:26;;;;;;;;;;;;;;;20.78;38.03;98985.41;5454417;26;20332;-26
2024/04/21 11:17:58;;;;;;;;;;;;;;;21.53;36.44;98972.25;5455119;26;20364;-28
2024/04/21 11:20:24;;;;;;;;;;;;;;;22.28;35.70;98968.56;5454866;26;19957;-28
2024/04/21 11:22:49;;;;;;;;;;;;;;;21.76;36.20;98971.34;5454476;26;19924;-27
2024/04/21 11:25:14;;;;;;;;;;;;;;;21.38;36.64;98971.38;5454908;26;19924;-27
2024/04/21 11:27:40;;;;;;;;;;;;;;;21.42;36.51;98971.59;5453713;26;19948;-28
2024/04/21 11:30:05;;;;;;;;;;;;;;;21.25;35.59;98972.91;5453512;26;20345;-28
2024/04/21 11:32:30;;;;;;;;;;;;;;;20.99;37.35;98987.88;5454624;26;19931;-28
2024/04/21 11:34:57;;;;;;;;;;;;;;;20.75;36.91;98971.66;5454202;26;19924;-26
2024/04/21 11:37:22;;;;;;;;;;;;;;;21.56;38.02;98966.25;5454722;26;19935;-27
2024/04/21 11:39:48;;;;;;;;;;;;;;;21.43;36.23;98968.56;5454075;26;20325;-30
2024/04/21 11:42:13;;;;;;;;;;;;;;;22.04;35.57;98968.69;5454272;26;19944;-27
2024/04/21 11:44:38;;;;;;;;;;;;;;;21.81;34.70;98955.00;5454356;26;19928;-28
2024/04/21 11:47:04;;;;;;;;;;;;;;;21.91;34.78;98958.63;5454806;26;20085;-28
2024/04/21 11:49:29;;;;;;;;;;;;;;;21.28;35.64;98955.25;5411869;26;1096420;-29
2024/04/21 11:51:54;;;;;;;;;;;;;;;20.97;35.72;98947.59;5452966;26;19924;-27
2024/04/21 11:54:20;;;;;;;;;;;;;;;21.53;35.06;98947.88;5452934;26;19925;-28
2024/04/21 11:56:45;;;;;;;;;;;;;;;20.69;36.96;98941.19;5453133;26;20242;-27
2024/04/21 11:59:10;;;;;;;;;;;;;;;21.02;37.08;98920.47;5452833;26;20432;-28
2024/04/21 12:01:36;;;;;;;;;;;;;;;20.42;38.98;98917.44;5452966;26;20038;-27
2024/04/21 12:04:01;;;;;;;;;;;;;;;20.34;39.15;98915.38;5452841;26;19924;-27
2024/04/21 12:06:26;;;;;;;;;;;;;;;20.70;40.04;98919.28;5452342;26;20335;-28
2024/04/21 12:08:51;;;;;;;;;;;;;;;19.75;42.95;98907.34;5453132;26;19939;-27
2024/04/21 12:11:17;;;;;;;;;;;;;;;19.62;44.70;98895.28;5452546;26;19924;-28
2024/04/21 12:13:42;;;;;;;;;;;;;;;19.89;44.14;98888.56;5451217;26;19936;-27
2024/04/21 12:16:07;;;;;;;;;;;;;;;19.95;44.30;98883.94;5452743;26;20264;-26
2024/04/21 12:18:33;;;;;;;;;;;;;;;19.50;45.04;98887.56;5450621;26;19931;-28
2024/04/21 12:20:58;;;;;;;;;;;;;;;19.63;44.93;98871.78;5452772;26;19924;-40
2024/04/21 12:23:23;;;;;;;;;;;;;;;19.03;46.53;98880.91;5452043;26;20283;-39
2024/04/21 12:25:48;;;;;;;;;;;;;;;18.84;48.20;98894.22;5451045;26;19939;-38
2024/04/21 12:28:13;;;;;;;;;;;;;;;18.20;48.99;98901.22;5452013;26;19924;-39
2024/04/21 12:30:39;;;;;;;;;;;;;;;18.72;48.93;98885.66;5451664;26;19932;-41
2024/04/21 12:33:05;;;;;;;;;;;;;;;19.21;48.03;98892.91;5451470;26;20471;-40
2024/04/21 12:35:30;;;;;;;;;;;;;;;19.08;48.56;98904.34;5450331;26;19925;-41
2024/04/21 12:37:55;;;;;;;;;;;;;;;19.09;46.90;98895.16;5449985;26;19924;-40